Time;durP1;ratioP1;P1;durP2;ratioP2;P2;SDS_P1;SDS_P2;PMS_P1;PMS_P2;Temp;Humidity;BMP_temperature;BMP_pressure;BME280_temperature;BME280_humidity;BME280_pressure;Samples;Min_cycle;Max_cycle;Signal;HPM_P1;HPM_P2
2022/11/04 06:10:53;;;;;;;22.23;5.35;;;;;;;6.16;100.00;100229.38;5111351;27;20132;-88
2022/11/04 06:13:30;;;;;;;28.98;6.07;;;;;;;6.17;100.00;100224.81;5093672;28;20044;-88
2022/11/04 06:15:58;;;;;;;19.25;5.22;;;;;;;6.21;100.00;100220.69;5076604;28;20051;-90
2022/11/04 06:18:36;;;;;;;17.02;5.50;;;;;;;6.22;100.00;100223.19;5093690;28;20130;-90
2022/11/04 06:21:23;;;;;;;;;;;;;;;;;;;;;
2022/11/04 06:24:00;;;;;;;18.60;5.68;;;;;;;6.12;100.00;100228.13;5094974;28;20040;-89
2022/11/04 06:26:43;;;;;;;20.33;5.53;;;;;;;6.03;100.00;100232.84;5093553;28;20423;-90
2022/11/04 06:29:23;;;;;;;19.35;5.20;;;;;;;6.02;100.00;100233.06;5093022;28;20040;-87
2022/11/04 06:31:48;;;;;;;16.42;4.95;;;;;;;5.96;100.00;100229.25;5093447;28;20071;-85
2022/11/04 06:34:13;;;;;;;20.30;4.93;;;;;;;5.92;100.00;100238.78;5093548;28;20063;-86
2022/11/04 06:36:39;;;;;;;26.60;5.00;;;;;;;5.89;100.00;100242.72;5093960;28;20039;-86
2022/11/04 06:39:05;;;;;;;14.83;4.73;;;;;;;5.90;100.00;100251.63;5093581;28;20036;-86
2022/11/04 06:41:31;;;;;;;19.02;4.78;;;;;;;5.85;100.00;100252.22;5092239;28;20126;-85
2022/11/04 06:43:56;;;;;;;18.27;5.03;;;;;;;5.88;100.00;100254.50;5093503;28;20047;-86
2022/11/04 06:46:26;;;;;;;18.45;5.20;;;;;;;5.90;100.00;100263.19;5092145;28;20048;-85
2022/11/04 06:48:52;;;;;;;19.73;5.37;;;;;;;5.91;100.00;100264.06;5094232;28;20051;-86
2022/11/04 06:51:17;;;;;;;13.50;4.72;;;;;;;5.91;100.00;100259.50;5092600;28;20040;-86
2022/11/04 06:53:43;;;;;;;25.67;4.90;;;;;;;5.92;100.00;100263.84;5075583;28;20040;-86
2022/11/04 06:56:09;;;;;;;17.60;4.50;;;;;;;5.94;100.00;100259.09;5091785;28;20040;-87
2022/11/04 06:58:37;;;;;;;19.20;5.53;;;;;;;5.98;100.00;100264.94;5093324;28;20075;-86
2022/11/04 07:01:14;;;;;;;21.77;5.97;;;;;;;6.06;100.00;100270.16;5093798;28;20075;-87
2022/11/04 07:03:47;;;;;;;18.38;5.45;;;;;;;6.14;100.00;100270.00;5093045;28;20040;-86
2022/11/04 07:06:12;;;;;;;16.83;5.97;;;;;;;6.26;100.00;100277.50;5092020;28;20534;-86
2022/11/04 07:08:39;;;;;;;18.88;6.25;;;;;;;6.35;100.00;100283.53;5093532;28;20039;-86
2022/11/04 07:11:05;;;;;;;16.00;5.95;;;;;;;6.44;100.00;100283.16;5095306;28;20043;-87
2022/11/04 07:13:30;;;;;;;27.15;6.50;;;;;;;6.54;100.00;100290.88;5095475;28;20035;-86
2022/11/04 07:16:04;;;;;;;15.63;5.90;;;;;;;6.66;100.00;100285.72;5078389;28;20040;-87
2022/11/04 07:18:29;;;;;;;25.75;7.10;;;;;;;6.81;100.00;100290.94;5078734;28;20039;-87
2022/11/04 07:20:56;;;;;;;31.80;6.80;;;;;;;6.90;100.00;100291.59;5115967;28;20032;-87
2022/11/04 07:23:24;;;;;;;21.95;6.50;;;;;;;7.07;100.00;100297.41;5098936;28;20036;-86
2022/11/04 07:25:49;;;;;;;17.15;6.25;;;;;;;7.14;100.00;100292.84;5117613;28;20070;-87
2022/11/04 07:28:15;;;;;;;23.83;6.83;;;;;;;7.20;100.00;100298.28;5098980;28;20169;-89
2022/11/04 07:30:41;;;;;;;30.23;6.50;;;;;;;7.29;100.00;100298.91;5099292;28;20031;-88
2022/11/04 07:33:07;;;;;;;21.92;6.15;;;;;;;7.37;100.00;100295.97;5099166;28;20042;-87
2022/11/04 07:35:33;;;;;;;22.27;6.72;;;;;;;7.45;100.00;100302.22;5098993;28;20043;-87
2022/11/04 07:37:58;;;;;;;24.92;6.40;;;;;;;7.45;100.00;100302.22;5099076;28;20032;-88
2022/11/04 07:40:24;;;;;;;21.73;6.27;;;;;;;7.53;100.00;100305.53;5099291;28;20054;-87
2022/11/04 07:42:50;;;;;;;22.60;6.70;;;;;;;7.59;100.00;100309.28;5099090;28;20036;-87
2022/11/04 07:45:25;;;;;;;19.33;6.93;;;;;;;7.69;100.00;100312.38;5098465;28;20044;-87
2022/11/04 07:48:00;;;;;;;20.27;6.55;;;;;;;7.76;100.00;100316.94;5082926;28;20520;-87
2022/11/04 07:50:29;;;;;;;16.38;6.18;;;;;;;7.75;100.00;100321.50;5083085;28;20126;-88
2022/11/04 07:55:49;;;;;;;15.43;5.70;;;;;;;7.91;100.00;100322.91;5117389;28;20047;-88
2022/11/04 07:58:19;;;;;;;24.15;6.60;;;;;;;8.01;100.00;100317.09;5082511;28;20134;-88
2022/11/04 08:00:51;;;;;;;20.45;6.60;;;;;;;8.16;100.00;100322.25;5082944;28;20035;-87
2022/11/04 08:03:22;;;;;;;18.20;6.68;;;;;;;8.24;100.00;100322.03;5098735;28;20031;-87
2022/11/04 08:05:57;;;;;;;20.25;6.85;;;;;;;8.35;100.00;100326.75;5098572;28;20497;-87
2022/11/04 08:08:28;;;;;;;21.10;6.93;;;;;;;8.37;100.00;100321.97;5098862;28;20039;-88
2022/11/04 08:11:07;;;;;;;;;;;;;;;;;;;;;
2022/11/04 08:13:43;;;;;;;23.95;6.57;;;;;;;8.34;100.00;100338.63;5117609;28;20039;-87
2022/11/04 08:16:20;;;;;;;20.20;6.20;;;;;;;8.23;100.00;100333.88;5098241;28;20130;-87
2022/11/04 08:19:00;;;;;;;24.42;6.43;;;;;;;8.22;100.00;100343.00;5098870;28;20391;-87
2022/11/04 08:21:30;;;;;;;22.55;6.85;;;;;;;8.18;100.00;100339.91;5082147;28;20100;-88
2022/11/04 08:23:55;;;;;;;19.10;6.70;;;;;;;8.23;100.00;100348.19;5098102;28;20086;-87
2022/11/04 08:26:37;;;;;;;19.97;7.27;;;;;;;8.22;100.00;100351.13;5098069;28;20059;-88
2022/11/04 08:29:07;;;;;;;20.90;6.63;;;;;;;8.17;100.00;100349.06;5116440;28;20030;-87
2022/11/04 08:31:41;;;;;;;21.63;7.10;;;;;;;8.20;100.00;100362.13;5115975;28;20040;-87
2022/11/04 08:34:09;;;;;;;24.33;6.60;;;;;;;8.24;100.00;100359.88;5081660;28;20063;-87
2022/11/04 08:36:41;;;;;;;25.15;6.88;;;;;;;8.20;100.00;100359.44;5098588;28;20443;-87
2022/11/04 08:39:08;;;;;;;25.67;7.13;;;;;;;8.26;100.00;100371.28;5081470;28;20039;-88
2022/11/04 08:41:37;;;;;;;21.70;7.55;;;;;;;8.20;100.00;100370.25;5097570;28;20175;-87
2022/11/04 08:44:11;;;;;;;26.90;7.90;;;;;;;8.21;100.00;100371.91;5097924;28;20071;-87
2022/11/04 08:46:44;;;;;;;26.60;8.25;;;;;;;8.28;100.00;100371.88;5098231;28;20046;-87
2022/11/04 08:49:14;;;;;;;28.95;8.52;;;;;;;8.50;100.00;100379.78;5097645;28;20494;-87
2022/11/04 08:51:58;;;;;;;;;;;;;;;;;;;;;
2022/11/04 08:54:34;;;;;;;27.00;8.55;;;;;;;8.72;100.00;100383.00;5099937;28;20038;-88
2022/11/04 08:57:00;;;;;;;22.02;8.05;;;;;;;8.75;100.00;100378.03;5098443;28;20039;-88
2022/11/04 08:59:35;;;;;;;23.13;8.33;;;;;;;8.82;100.00;100390.69;5098321;28;20085;-87
2022/11/04 09:02:03;;;;;;;15.40;7.15;;;;;;;8.76;100.00;100384.25;5097256;28;20038;-87
2022/11/04 09:04:34;;;;;;;18.90;7.03;;;;;;;8.74;100.00;100394.44;5097581;28;20043;-87
2022/11/04 09:07:05;;;;;;;27.02;8.55;;;;;;;8.91;100.00;100401.03;5079943;28;20545;-88
2022/11/04 09:09:38;;;;;;;25.50;7.95;;;;;;;8.99;100.00;100408.09;5097477;28;20046;-86
2022/11/04 09:12:04;;;;;;;25.27;7.90;;;;;;;9.23;100.00;100414.63;5080454;28;20135;-89
2022/11/04 09:14:29;;;;;;;22.98;7.97;;;;;;;9.40;100.00;100412.19;5097030;28;20459;-87
2022/11/04 09:16:58;;;;;;;16.37;6.60;;;;;;;9.34;100.00;100412.25;5097254;28;20471;-86
2022/11/04 09:19:24;;;;;;;15.38;6.35;;;;;;;9.32;100.00;100417.06;5097581;28;20467;-86
2022/11/04 09:21:58;;;;;;;18.80;6.65;;;;;;;9.52;100.00;100427.75;5096961;28;20498;-87
2022/11/04 09:24:24;;;;;;;17.25;6.10;;;;;;;9.62;100.00;100433.53;5097486;28;20066;-86
2022/11/04 09:26:54;;;;;;;21.33;6.67;;;;;;;9.70;100.00;100435.13;5096670;28;20036;-87
2022/11/04 09:29:20;;;;;;;19.38;6.55;;;;;;;9.71;100.00;100425.97;5097030;28;20055;-87
2022/11/04 09:32:04;;;;;;;16.43;5.70;;;;;;;9.79;100.00;100437.38;5096994;28;20471;-87
2022/11/04 09:34:32;;;;;;;15.35;5.82;;;;;;;9.94;100.00;100431.63;5080986;28;20032;-87
2022/11/04 09:37:03;;;;;;;19.80;6.15;;;;;;;9.98;100.00;100431.97;5115169;28;20109;-88
2022/11/04 09:39:35;;;;;;;13.38;5.40;;;;;;;9.99;100.00;100452.63;5097510;28;20035;-88
2022/11/04 09:42:35;;;;;;;22.27;5.90;;;;;;;10.08;100.00;100456.72;5097069;28;20463;-87
2022/11/04 09:45:23;;;;;;;;;;;;;;;;;;;;;
2022/11/04 09:47:51;;;;;;;12.30;5.15;;;;;;;10.31;100.00;100458.81;5115448;28;20379;-86
2022/11/04 09:50:24;;;;;;;14.93;4.88;;;;;;;10.21;100.00;100463.91;5096697;28;20463;-86
2022/11/04 09:52:55;;;;;;;13.52;4.97;;;;;;;10.16;100.00;100470.00;5097293;28;20073;-86
2022/11/04 09:55:56;;;;;;;14.87;5.27;;;;;;;10.36;100.00;100469.00;5096601;28;20480;-86
2022/11/04 09:58:25;;;;;;;14.30;5.32;;;;;;;10.47;100.00;100465.56;5100211;28;20075;-86
2022/11/04 10:01:03;;;;;;;18.65;5.85;;;;;;;10.57;100.00;100466.94;5096576;28;20055;-87
2022/11/04 10:04:01;;;;;;;17.95;5.63;;;;;;;10.67;100.00;100465.38;5096365;28;20032;-86
2022/11/04 10:07:06;;;;;;;12.63;4.97;;;;;;;10.78;100.00;100466.50;5097130;28;20046;-87
2022/11/04 10:09:33;;;;;;;10.33;4.60;;;;;;;10.88;100.00;100477.66;5029167;28;20041;-86
2022/11/04 10:12:22;;;;;;;14.02;4.60;;;;;;;10.87;100.00;100469.75;5031382;28;20057;-86
2022/11/04 10:15:26;;;;;;;16.98;5.40;;;;;;;11.08;100.00;100484.72;5031831;28;20552;-86
2022/11/04 10:18:10;;;;;;;11.27;4.97;;;;;;;11.33;100.00;100484.63;5030486;28;20063;-87
2022/11/04 10:20:36;;;;;;;12.80;4.75;;;;;;;11.65;100.00;100486.25;5096682;28;20036;-87
2022/11/04 10:23:14;;;;;;;14.20;4.97;;;;;;;11.85;100.00;100481.38;5095923;28;20061;-87
2022/11/04 10:29:05;;;;;;;15.67;4.90;;;;;;;12.16;100.00;100475.91;5032867;28;20099;-86
2022/11/04 10:31:37;;;;;;;11.43;4.57;;;;;;;12.18;100.00;100490.94;5113831;28;20067;-87
2022/11/04 10:34:38;;;;;;;10.13;4.68;;;;;;;12.36;100.00;100502.78;5096087;28;20040;-85
2022/11/04 10:37:09;;;;;;;12.98;4.57;;;;;;;12.58;100.00;100500.28;5084521;28;20488;-86
2022/11/04 10:39:40;;;;;;;13.65;5.18;;;;;;;12.49;100.00;100496.25;5096585;28;20037;-87
2022/11/04 10:42:06;;;;;;;11.33;4.63;;;;;;;12.55;100.00;100503.47;5095685;28;20028;-86
2022/11/04 10:44:39;;;;;;;14.38;5.78;;;;;;;12.68;99.90;100507.84;5078836;28;20090;-87
2022/11/04 10:54:03;;;;;;;16.13;5.25;;;;;;;13.56;96.75;100533.16;5115176;28;20035;-87
2022/11/04 11:00:02;;;;;;;15.77;6.07;;;;;;;14.03;93.34;100530.19;5120701;28;20406;-87
2022/11/04 11:02:37;;;;;;;14.33;5.13;;;;;;;14.24;91.47;100530.53;5102646;28;20032;-87
2022/11/04 11:05:31;;;;;;;14.40;5.60;;;;;;;14.79;93.11;100520.75;5102288;28;20066;-87
2022/11/04 11:08:01;;;;;;;12.05;6.43;;;;;;;16.13;82.83;100523.13;5100669;28;20459;-87
2022/11/04 11:10:50;;;;;;;16.23;6.57;;;;;;;17.23;84.51;100509.03;5069160;28;20038;-87
2022/11/04 11:13:38;;;;;;;13.35;6.50;;;;;;;18.69;78.80;100510.59;5096662;28;20048;-87
2022/11/04 11:16:26;;;;;;;12.97;6.43;;;;;;;20.41;66.38;100507.47;5038424;28;20111;-87
2022/11/04 11:19:10;;;;;;;22.60;5.30;;;;;;;20.19;71.12;100518.16;5091770;28;20043;-87
2022/11/04 11:21:50;;;;;;;11.75;5.10;;;;;;;19.67;69.42;100523.16;5098950;28;20074;-87
2022/11/04 11:28:28;;;;;;;10.73;5.35;;;;;;;20.83;71.41;100516.19;5100069;28;20407;-88
2022/11/04 11:38:30;;;;;;;10.52;4.65;;;;;;;22.82;58.73;100523.78;4998518;28;20084;-88
2022/11/04 11:51:41;;;;;;;8.20;4.40;;;;;;;22.63;57.58;100512.78;4942040;28;20047;-88
2022/11/04 12:12:16;;;;;;;14.55;4.45;;;;;;;25.10;51.30;100538.44;5048140;28;20032;-89
2022/11/04 12:23:24;;;;;;;10.97;3.90;;;;;;;32.85;30.89;100539.94;5116285;28;20483;-89
2022/11/04 12:50:33;;;;;;;8.45;4.90;;;;;;;29.31;35.14;100562.34;5116018;28;20032;-87
2022/11/04 13:13:04;;;;;;;9.53;5.23;;;;;;;34.33;22.62;100580.66;5113097;27;20047;-87
2022/11/04 13:29:50;;;;;;;7.53;3.40;;;;;;;30.99;30.02;100596.44;5012831;28;20041;-88
2022/11/04 13:36:37;;;;;;;8.93;4.50;;;;;;;26.65;34.64;100612.34;5012465;28;20556;-86
2022/11/04 13:49:36;;;;;;;12.23;5.28;;;;;;;21.70;42.29;100650.41;4953903;28;20042;-87
2022/11/04 13:52:10;;;;;;;7.82;5.40;;;;;;;20.77;44.22;100645.00;4945371;28;20047;-87
2022/11/04 13:54:42;;;;;;;11.52;5.75;;;;;;;20.38;46.03;100648.56;5032212;28;20077;-86
2022/11/04 13:57:16;;;;;;;9.73;5.72;;;;;;;19.84;47.30;100650.25;5014963;28;20042;-86
2022/11/04 14:00:01;;;;;;;9.67;5.30;;;;;;;19.39;48.05;100646.56;5027490;28;20527;-85
2022/11/04 14:02:37;;;;;;;14.32;5.60;;;;;;;19.27;48.71;100658.66;5035141;28;20524;-86
2022/11/04 14:05:28;;;;;;;10.57;6.07;;;;;;;19.26;49.82;100662.50;5034985;28;20041;-86
2022/11/04 14:08:02;;;;;;;12.95;6.20;;;;;;;18.75;50.54;100657.88;5034679;28;20140;-86
2022/11/04 14:10:48;;;;;;;8.57;5.35;;;;;;;18.50;50.96;100669.69;5035639;28;20068;-86
2022/11/04 14:13:26;;;;;;;11.87;5.70;;;;;;;17.92;52.75;100663.50;5051185;28;20049;-85
2022/11/04 14:19:47;;;;;;;8.30;5.07;;;;;;;17.09;54.53;100671.25;5073921;28;20043;-85
2022/11/04 14:25:46;;;;;;;9.23;5.22;;;;;;;16.47;57.02;100680.84;5073841;28;20036;-86
2022/11/04 14:31:50;;;;;;;8.75;4.57;;;;;;;15.92;58.78;100701.88;5051700;28;20561;-86
2022/11/04 14:37:52;;;;;;;8.43;4.50;;;;;;;15.53;60.08;100715.53;5073569;28;20043;-86
2022/11/04 14:44:39;;;;;;;8.20;4.30;;;;;;;15.33;60.80;100725.09;5073371;28;20058;-86
2022/11/04 14:47:17;;;;;;;7.35;4.15;;;;;;;15.03;62.41;100731.75;5073125;28;20115;-86
2022/11/04 14:50:41;;;;;;;8.95;4.05;;;;;;;14.90;62.97;100738.34;5072020;28;20036;-86
2022/11/04 15:06:59;;;;;;;7.55;3.92;;;;;;;13.64;69.29;100761.75;5030533;28;20033;-86
2022/11/04 15:19:51;;;;;;;6.10;2.80;;;;;;;13.03;71.34;100782.06;5070455;28;20070;-86
2022/11/04 15:26:02;;;;;;;2.78;1.00;;;;;;;12.61;68.80;100794.56;5093528;28;20085;-86
2022/11/04 15:32:05;;;;;;;3.87;1.07;;;;;;;12.22;68.77;100804.06;5093430;28;20453;-85
2022/11/04 15:44:53;;;;;;;3.72;0.70;;;;;;;11.84;71.33;100813.22;5097462;28;20042;-85
2022/11/04 15:54:36;;;;;;;2.85;0.70;;;;;;;11.53;72.92;100826.72;5054631;28;20111;-86
2022/11/04 16:14:23;;;;;;;5.38;0.60;;;;;;;10.86;77.04;100861.63;5055281;28;20036;-86
2022/11/04 16:20:16;;;;;;;5.13;1.70;;;;;;;10.58;81.08;100856.53;5106569;28;20513;-85
2022/11/04 16:22:42;;;;;;;4.68;1.35;;;;;;;10.50;82.07;100869.31;5116497;28;20047;-86
2022/11/04 16:32:54;;;;;;;4.75;1.70;;;;;;;10.25;83.64;100879.16;5116413;28;20047;-86
2022/11/04 16:39:02;;;;;;;5.50;2.25;;;;;;;10.02;84.71;100891.28;5116342;28;20039;-85
2022/11/04 16:41:31;;;;;;;4.28;1.60;;;;;;;9.97;86.23;100889.22;5097790;28;20035;-85
2022/11/04 16:43:59;;;;;;;6.30;1.77;;;;;;;9.87;87.35;100891.53;5098014;28;20032;-85
2022/11/04 16:46:25;;;;;;;4.75;1.80;;;;;;;9.86;87.27;100892.56;5098337;28;20044;-85
2022/11/04 16:48:50;;;;;;;4.97;1.70;;;;;;;9.86;87.52;100891.72;5081046;28;20036;-86
2022/11/04 16:51:19;;;;;;;5.97;2.60;;;;;;;9.87;87.79;100904.25;5116505;28;20046;-86
2022/11/04 16:54:30;;;;;;;7.40;2.30;;;;;;;9.95;86.79;100910.28;5098294;28;20042;-86
2022/11/04 17:00:22;;;;;;;6.50;2.05;;;;;;;9.95;87.71;100921.13;5115915;28;20066;-85
2022/11/04 17:06:13;;;;;;;6.03;3.05;;;;;;;9.96;88.88;100927.38;5115881;28;20413;-85
2022/11/04 17:08:40;;;;;;;7.80;3.05;;;;;;;9.94;88.90;100932.19;5097265;28;20391;-86
2022/11/04 17:11:08;;;;;;;5.87;3.40;;;;;;;9.91;89.37;100929.88;5080645;28;20040;-85
2022/11/04 17:13:33;;;;;;;5.20;3.10;;;;;;;9.92;89.55;100939.66;5097061;28;20039;-85
2022/11/04 17:15:59;;;;;;;8.90;2.83;;;;;;;9.90;89.72;100942.59;5097716;28;20046;-85
2022/11/04 17:18:27;;;;;;;4.68;2.83;;;;;;;9.90;90.35;100952.59;5097629;28;20040;-85
2022/11/04 17:20:54;;;;;;;5.63;2.77;;;;;;;9.85;90.47;100953.22;5115445;28;20096;-85
2022/11/04 17:23:21;;;;;;;4.25;2.40;;;;;;;9.85;90.17;100953.22;5097010;28;20081;-85
2022/11/04 17:25:50;;;;;;;9.02;2.83;;;;;;;9.83;89.64;100947.16;5097037;28;20119;-86
2022/11/04 17:28:15;;;;;;;5.15;2.38;;;;;;;9.83;89.91;100953.44;5096775;28;20032;-85
2022/11/04 17:30:44;;;;;;;4.13;2.53;;;;;;;9.82;90.24;100948.22;5080281;28;20036;-86
2022/11/04 17:33:13;;;;;;;7.63;2.10;;;;;;;9.84;89.96;100963.22;5096854;28;20357;-85
2022/11/04 17:35:40;;;;;;;4.85;1.80;;;;;;;9.85;89.64;100972.19;5096612;28;20122;-85
2022/11/04 17:38:08;;;;;;;4.13;2.10;;;;;;;9.82;89.62;100970.75;5096961;28;20089;-85
2022/11/04 17:43:58;;;;;;;5.47;2.20;;;;;;;9.82;90.20;100976.16;5080174;28;20039;-85
2022/11/04 17:46:51;;;;;;;5.53;1.90;;;;;;;9.75;90.37;100980.72;5099506;28;20580;-85
2022/11/04 17:48:52;;;;;;;6.22;1.95;;;;;;;9.73;90.04;100985.53;5085912;28;20399;-85
2022/11/04 17:51:17;;;;;;;4.70;1.70;;;;;;;9.60;90.49;100974.69;5096583;28;20036;-85
2022/11/04 17:53:42;;;;;;;3.57;2.20;;;;;;;9.58;91.11;100979.44;5096812;28;20149;-85
2022/11/04 17:56:15;;;;;;;3.13;1.63;;;;;;;9.53;91.42;100976.53;5114629;28;20036;-85
2022/11/04 17:58:41;;;;;;;4.03;2.10;;;;;;;9.55;91.40;100990.69;5096539;28;20135;-85
2022/11/04 18:01:08;;;;;;;4.23;2.30;;;;;;;9.48;91.86;100993.41;5096236;28;20118;-85
2022/11/04 18:03:34;;;;;;;9.18;2.67;;;;;;;9.42;92.19;100997.75;5113808;28;20114;-86
2022/11/04 18:06:03;;;;;;;5.05;2.65;;;;;;;9.40;92.29;100999.81;5095950;28;20066;-85
2022/11/04 18:08:38;;;;;;;7.75;2.70;;;;;;;9.37;92.26;100994.00;5114433;28;20040;-85
2022/11/04 18:14:56;;;;;;;5.67;3.00;;;;;;;9.39;93.41;101017.13;5114708;28;20035;-86
2022/11/04 18:17:23;;;;;;;6.82;3.22;;;;;;;9.35;93.84;101012.31;5095768;28;20122;-86
2022/11/04 18:19:52;;;;;;;7.80;3.30;;;;;;;9.30;94.26;101007.50;5077595;28;20393;-86
2022/11/04 18:22:18;;;;;;;6.82;3.53;;;;;;;9.27;94.27;101019.59;5096576;28;20074;-85
2022/11/04 18:28:21;;;;;;;8.88;4.18;;;;;;;9.19;95.55;101027.88;5114151;28;20057;-86
2022/11/04 18:30:47;;;;;;;8.80;4.30;;;;;;;9.18;95.97;101031.59;5114338;28;20036;-86
2022/11/04 18:33:12;;;;;;;7.00;4.47;;;;;;;9.15;96.63;101031.19;5079993;28;20085;-85
2022/11/04 18:35:37;;;;;;;7.78;4.65;;;;;;;9.10;96.89;101039.91;5079491;28;20150;-86
2022/11/04 18:38:03;;;;;;;7.90;4.97;;;;;;;9.05;97.84;101039.66;5078843;28;20447;-86
2022/11/04 18:40:33;;;;;;;8.63;5.30;;;;;;;9.00;98.28;101036.75;5078737;28;20043;-85
2022/11/04 18:43:00;;;;;;;11.48;5.15;;;;;;;8.95;98.76;101038.16;5096531;28;20040;-86
2022/11/04 18:45:29;;;;;;;10.57;5.47;;;;;;;8.84;99.40;101035.19;5095591;28;20070;-86
2022/11/04 18:47:54;;;;;;;8.40;5.57;;;;;;;8.81;99.60;101039.13;5096790;28;20039;-85
2022/11/04 18:50:20;;;;;;;9.32;6.70;;;;;;;8.78;100.00;101044.94;5113742;28;20062;-84
2022/11/04 18:52:45;;;;;;;14.00;8.07;;;;;;;8.74;100.00;101051.78;5095635;28;20123;-85
2022/11/04 18:55:11;;;;;;;12.17;7.30;;;;;;;8.66;100.00;101052.75;5096419;28;20464;-85
2022/11/04 18:57:36;;;;;;;10.20;6.80;;;;;;;8.57;100.00;101048.56;5096015;28;20130;-85
2022/11/04 19:00:02;;;;;;;9.48;5.93;;;;;;;8.50;100.00;101056.59;5114678;28;20062;-85
2022/11/04 19:02:30;;;;;;;12.70;6.45;;;;;;;8.43;100.00;101050.31;5114263;28;20105;-84
2022/11/04 19:04:55;;;;;;;9.23;5.65;;;;;;;8.39;100.00;101063.38;5095674;28;20092;-85
2022/11/04 19:07:23;;;;;;;16.77;7.10;;;;;;;8.31;100.00;101057.25;5095965;28;20040;-84
2022/11/04 19:09:53;;;;;;;11.35;6.07;;;;;;;8.21;100.00;101058.44;5096436;28;20040;-85
2022/11/04 19:15:03;;;;;;;11.73;5.78;;;;;;;8.12;100.00;101073.13;5115763;28;20190;-84
2022/11/04 19:17:29;;;;;;;10.07;5.17;;;;;;;8.03;100.00;101072.41;5118326;28;20044;-85
2022/11/04 19:20:01;;;;;;;9.30;5.53;;;;;;;7.96;100.00;101073.34;5099239;28;20044;-85
2022/11/04 19:22:29;;;;;;;7.18;4.97;;;;;;;7.93;100.00;101082.69;5083901;28;20202;-85
2022/11/04 19:24:54;;;;;;;10.47;5.60;;;;;;;7.85;100.00;101090.91;5099270;28;20044;-85
2022/11/04 19:27:23;;;;;;;14.00;5.03;;;;;;;7.71;100.00;101073.75;5117668;28;20035;-85
2022/11/04 19:29:49;;;;;;;11.57;4.90;;;;;;;7.65;100.00;101082.63;5099481;28;20027;-85
2022/11/04 19:32:14;;;;;;;15.40;5.07;;;;;;;7.58;100.00;101076.28;5099228;28;20038;-85
2022/11/04 19:34:41;;;;;;;11.80;5.27;;;;;;;7.60;100.00;101102.06;5082609;28;20438;-85
2022/11/04 19:37:11;;;;;;;11.65;5.07;;;;;;;7.52;100.00;101100.31;5117491;28;20478;-85
2022/11/04 19:39:37;;;;;;;10.90;5.55;;;;;;;7.44;100.00;101105.84;5099217;28;20517;-85
2022/11/04 19:44:47;;;;;;;10.60;5.25;;;;;;;7.38;100.00;101106.56;5117686;28;20131;-85
2022/11/04 19:47:12;;;;;;;11.63;5.67;;;;;;;7.36;100.00;101109.44;5082717;28;20119;-84
2022/11/04 19:49:38;;;;;;;13.35;6.20;;;;;;;7.26;100.00;101108.91;5082077;28;20422;-84
2022/11/04 19:52:07;;;;;;;12.07;6.67;;;;;;;7.23;100.00;101109.28;5099207;28;20042;-85
2022/11/04 19:54:33;;;;;;;10.95;5.72;;;;;;;7.16;100.00;101106.50;5098877;28;20050;-85
2022/11/04 19:56:59;;;;;;;9.50;5.67;;;;;;;7.19;100.00;101118.78;5099328;28;20035;-85
2022/11/04 19:59:24;;;;;;;11.70;5.93;;;;;;;7.09;100.00;101110.97;5099513;28;20610;-85
2022/11/04 20:01:50;;;;;;;9.40;5.80;;;;;;;7.10;100.00;101130.69;5099269;28;20437;-85
2022/11/04 20:04:16;;;;;;;16.47;5.70;;;;;;;7.00;100.00;101123.72;5099216;28;20126;-85
2022/11/04 20:06:43;;;;;;;9.00;5.90;;;;;;;6.98;100.00;101133.84;5099216;28;20040;-85
2022/11/04 20:09:12;;;;;;;11.10;5.93;;;;;;;6.96;100.00;101146.66;5099194;28;20134;-85
2022/11/04 20:14:25;;;;;;;12.75;5.75;;;;;;;6.93;100.00;101138.13;5117599;28;20066;-84
2022/11/04 20:16:51;;;;;;;13.35;6.07;;;;;;;6.95;100.00;101144.16;5098715;28;20040;-85
2022/11/04 20:19:17;;;;;;;10.10;5.97;;;;;;;6.95;100.00;101160.34;5098620;28;20032;-86
2022/11/04 20:21:42;;;;;;;10.23;6.15;;;;;;;6.90;100.00;101151.97;5098172;28;20055;-85
2022/11/04 20:24:13;;;;;;;7.57;5.10;;;;;;;6.86;100.00;101156.88;5098459;28;20088;-85
2022/11/04 20:26:42;;;;;;;10.57;5.13;;;;;;;6.75;100.00;101155.47;5097959;28;20114;-85
2022/11/04 20:29:07;;;;;;;9.82;5.78;;;;;;;6.74;100.00;101155.66;5098379;28;20036;-85
2022/11/04 20:31:37;;;;;;;11.20;5.45;;;;;;;6.72;100.00;101160.38;5099396;28;20047;-85
2022/11/04 20:34:06;;;;;;;11.20;5.45;;;;;;;6.63;100.00;101160.47;5098149;28;20055;-85
2022/11/04 20:36:33;;;;;;;8.75;4.93;;;;;;;6.64;100.00;101164.84;5081842;28;20039;-85
2022/11/04 20:39:01;;;;;;;9.18;4.80;;;;;;;6.56;100.00;101167.59;5098139;28;20134;-86
2022/11/04 20:41:30;;;;;;;10.20;5.47;;;;;;;6.58;100.00;101180.91;5098230;28;20040;-86
2022/11/04 20:43:55;;;;;;;10.50;5.28;;;;;;;6.58;100.00;101183.59;5115983;28;20032;-85
2022/11/04 20:46:23;;;;;;;12.80;5.53;;;;;;;6.54;100.00;101185.84;5098106;28;20034;-85
2022/11/04 20:48:49;;;;;;;11.50;5.13;;;;;;;6.47;100.00;101180.31;5098345;28;20031;-85
2022/11/04 20:51:18;;;;;;;10.55;5.22;;;;;;;6.50;100.00;101193.44;5116576;28;20042;-85
2022/11/04 20:53:44;;;;;;;11.05;4.45;;;;;;;6.44;100.00;101191.47;5098664;28;20036;-85
2022/11/04 20:56:16;;;;;;;8.90;5.30;;;;;;;6.52;100.00;101205.91;5116188;28;20039;-85
2022/11/04 20:58:44;;;;;;;12.90;4.93;;;;;;;6.42;100.00;101203.44;5116082;28;20045;-85
2022/11/04 21:01:15;;;;;;;11.23;5.07;;;;;;;6.47;100.00;101214.53;5097461;28;20035;-85
2022/11/04 21:03:44;;;;;;;15.38;4.80;;;;;;;6.43;100.00;101221.28;5081769;28;20039;-85
2022/11/04 21:06:10;;;;;;;9.68;4.70;;;;;;;6.35;100.00;101213.25;5116027;28;20081;-85
2022/11/04 21:08:36;;;;;;;7.67;4.60;;;;;;;6.38;100.00;101229.91;5116233;28;20061;-85
2022/11/04 21:11:03;;;;;;;12.77;5.00;;;;;;;6.38;100.00;101223.66;5098288;28;20039;-85
2022/11/04 21:13:30;;;;;;;11.82;4.82;;;;;;;6.40;100.00;101229.72;5097867;28;20040;-84
2022/11/04 21:15:57;;;;;;;10.50;4.72;;;;;;;6.38;100.00;101223.66;5098507;28;20047;-85
2022/11/04 21:18:26;;;;;;;8.88;5.35;;;;;;;6.36;100.00;101225.72;5080777;28;20036;-84
2022/11/04 21:20:51;;;;;;;9.30;5.15;;;;;;;6.41;100.00;101242.19;5097348;28;20043;-84
2022/11/04 21:23:19;;;;;;;9.70;5.60;;;;;;;6.42;100.00;101244.72;5096726;28;20146;-85
2022/11/04 21:25:58;;;;;;;14.15;5.68;;;;;;;6.48;100.00;101241.31;5115640;28;20043;-85
2022/11/04 21:28:24;;;;;;;10.88;6.05;;;;;;;6.58;100.00;101251.00;5080621;28;20043;-85
2022/11/04 21:30:52;;;;;;;14.98;5.43;;;;;;;6.58;100.00;101246.44;5097618;28;20032;-85
2022/11/04 21:33:17;;;;;;;9.07;5.47;;;;;;;6.62;100.00;101252.34;5096917;28;20061;-85
2022/11/04 21:35:43;;;;;;;13.30;6.20;;;;;;;6.72;100.00;101261.03;5097459;28;20391;-85
2022/11/04 21:38:12;;;;;;;10.77;5.60;;;;;;;6.78;100.00;101263.00;5096418;28;20478;-85
2022/11/04 21:40:38;;;;;;;7.43;5.22;;;;;;;6.87;100.00;101262.94;5097151;28;20040;-85
2022/11/04 21:43:03;;;;;;;13.48;5.55;;;;;;;6.97;100.00;101266.22;5096922;28;20489;-85
2022/11/04 21:45:29;;;;;;;11.13;5.47;;;;;;;6.96;100.00;101264.53;5080527;28;20162;-85
2022/11/04 21:47:54;;;;;;;10.70;5.40;;;;;;;6.94;100.00;101271.97;5097744;28;20039;-85
2022/11/04 21:50:20;;;;;;;12.60;5.20;;;;;;;6.86;100.00;101270.19;5079994;28;20043;-85
2022/11/04 21:52:45;;;;;;;11.98;4.82;;;;;;;6.93;100.00;101281.09;5096945;28;20071;-85
2022/11/04 21:58:47;;;;;;;10.18;5.38;;;;;;;6.95;100.00;101288.00;5114475;28;20376;-85
2022/11/04 22:15:08;;;;;;;9.07;3.50;;;;;;;7.39;100.00;101294.50;5114286;28;20031;-86
2022/11/04 22:17:34;;;;;;;8.43;3.33;;;;;;;7.42;100.00;101299.53;5079605;28;20415;-86
2022/11/04 22:19:59;;;;;;;9.73;3.67;;;;;;;7.47;100.00;101299.84;5079336;28;20036;-85
2022/11/04 22:22:25;;;;;;;8.23;3.53;;;;;;;7.50;100.00;101294.09;5096756;27;20406;-86
2022/11/04 22:25:02;;;;;;;7.07;3.25;;;;;;;7.56;100.00;101300.63;5079062;28;20109;-85
2022/11/04 22:27:33;;;;;;;8.90;2.80;;;;;;;7.65;100.00;101306.78;5066156;28;20039;-85
2022/11/04 22:29:59;;;;;;;7.10;2.88;;;;;;;7.65;100.00;101306.78;5080547;28;20031;-86
2022/11/04 22:32:24;;;;;;;13.73;3.20;;;;;;;7.64;100.00;101303.22;5114437;28;20541;-85
2022/11/04 22:34:50;;;;;;;6.17;2.40;;;;;;;7.64;100.00;101303.22;5095878;28;20031;-85